createdAt,value
2022-08-02T00:00:55.752Z,17.30
2022-08-02T00:01:57.550Z,17.30
2022-08-02T00:02:59.083Z,17.30
2022-08-02T00:04:00.782Z,17.40
2022-08-02T00:05:02.390Z,17.30
2022-08-02T00:06:04.146Z,17.40
2022-08-02T00:07:06.074Z,17.40
2022-08-02T00:08:07.710Z,17.40
2022-08-02T00:09:09.300Z,17.40
2022-08-02T00:10:12.316Z,17.40
2022-08-02T00:11:14.154Z,17.30
2022-08-02T00:12:16.027Z,17.40
2022-08-02T00:13:17.659Z,17.30
2022-08-02T00:14:19.253Z,17.40
2022-08-02T00:15:21.120Z,17.40
2022-08-02T00:16:24.009Z,17.40
2022-08-02T00:17:39.342Z,17.40
2022-08-02T00:18:42.573Z,17.40
2022-08-02T00:19:44.725Z,17.40
2022-08-02T00:20:46.314Z,17.40
2022-08-02T00:21:48.167Z,17.40
2022-08-02T00:22:50.034Z,17.30
2022-08-02T00:24:28.861Z,17.30
2022-08-02T00:25:13.099Z,17.30
2022-08-02T00:26:14.994Z,17.30
2022-08-02T00:27:16.786Z,17.30
2022-08-02T00:28:21.878Z,17.30
2022-08-02T00:29:30.022Z,17.30
2022-08-02T00:30:31.579Z,17.20
2022-08-02T00:31:33.335Z,17.30
2022-08-02T00:32:34.849Z,17.30
2022-08-02T00:34:26.360Z,17.30
2022-08-02T00:34:57.980Z,17.30
2022-08-02T00:35:59.591Z,17.30
2022-08-02T00:37:01.079Z,17.30
2022-08-02T00:38:04.288Z,17.30
2022-08-02T00:39:06.115Z,17.30
2022-08-02T00:40:27.541Z,17.20
2022-08-02T00:41:29.182Z,17.20
2022-08-02T00:42:30.899Z,17.30
2022-08-02T00:43:32.758Z,17.30
2022-08-02T00:44:34.864Z,17.30
2022-08-02T00:46:02.314Z,17.30
2022-08-02T00:47:01.267Z,17.40
2022-08-02T00:48:03.774Z,17.30
2022-08-02T00:49:05.440Z,17.30
2022-08-02T00:50:09.023Z,17.30
2022-08-02T00:51:11.835Z,17.30
2022-08-02T00:52:13.870Z,17.30
2022-08-02T00:53:15.593Z,17.30
2022-08-02T00:54:17.169Z,17.30
2022-08-02T00:55:18.811Z,17.20
2022-08-02T00:56:33.790Z,17.20
2022-08-02T00:57:35.343Z,17.20
2022-08-02T00:58:38.158Z,17.20
2022-08-02T00:59:41.896Z,17.20
2022-08-02T01:00:43.581Z,17.10
2022-08-02T01:01:55.722Z,17.20
2022-08-02T01:02:59.710Z,17.20
2022-08-02T01:04:01.191Z,17.20
2022-08-02T01:05:02.932Z,17.20
2022-08-02T01:06:11.981Z,17.20
2022-08-02T01:07:14.689Z,17.20
2022-08-02T01:08:16.698Z,17.10
2022-08-02T01:09:18.344Z,17.10
2022-08-02T01:10:20.051Z,17.10
2022-08-02T01:11:21.603Z,17.10
2022-08-02T01:12:23.275Z,17.10
2022-08-02T01:13:25.941Z,17.10
2022-08-02T01:14:27.816Z,17.10
2022-08-02T01:15:35.709Z,17.20
2022-08-02T01:16:52.752Z,17.20
2022-08-02T01:18:05.750Z,17.20
2022-08-02T01:19:33.088Z,17.20
2022-08-02T01:21:14.467Z,17.10
2022-08-02T01:22:15.961Z,17.10
2022-08-02T01:23:17.382Z,17.20
2022-08-02T01:24:32.777Z,17.20
2022-08-02T01:25:53.166Z,17.20
2022-08-02T01:27:08.389Z,17.10
2022-08-02T01:28:18.791Z,17.10
2022-08-02T01:29:26.965Z,17.20
2022-08-02T01:30:30.099Z,17.10
2022-08-02T01:31:38.891Z,17.10
2022-08-02T01:32:46.645Z,17.10
2022-08-02T01:33:56.249Z,17.10
2022-08-02T01:35:17.642Z,17.10
2022-08-02T01:36:21.934Z,17.10
2022-08-02T01:37:36.645Z,17.10
2022-08-02T01:38:46.854Z,17.00
2022-08-02T01:40:01.099Z,16.90
2022-08-02T01:41:05.372Z,17.00
2022-08-02T01:42:07.893Z,16.90
2022-08-02T01:43:12.256Z,17.00
2022-08-02T01:44:16.533Z,16.90
2022-08-02T01:45:19.809Z,16.90
2022-08-02T01:46:23.197Z,16.90
2022-08-02T01:47:31.841Z,17.00
2022-08-02T01:48:35.160Z,17.00
2022-08-02T01:49:39.898Z,17.00
2022-08-02T01:50:42.606Z,17.00
2022-08-02T01:52:05.654Z,17.00
2022-08-02T01:53:10.335Z,17.00
2022-08-02T01:54:14.628Z,17.00
2022-08-02T01:55:23.472Z,16.90
2022-08-02T01:56:37.213Z,16.90
2022-08-02T01:57:46.372Z,16.90
2022-08-02T01:58:49.857Z,16.90
2022-08-02T01:59:56.325Z,16.90
2022-08-02T02:00:59.969Z,16.90
2022-08-02T02:02:03.033Z,16.90
2022-08-02T02:03:06.694Z,16.80
2022-08-02T02:04:10.067Z,16.90
2022-08-02T02:05:14.924Z,16.80
2022-08-02T02:06:18.311Z,16.80
2022-08-02T02:07:21.953Z,16.80
2022-08-02T02:08:33.992Z,16.80
2022-08-02T02:09:50.176Z,16.90
2022-08-02T02:10:53.213Z,16.80
2022-08-02T02:12:09.528Z,16.80
2022-08-02T02:13:19.473Z,16.80
2022-08-02T02:14:21.771Z,16.80
2022-08-02T02:15:24.999Z,16.80
2022-08-02T02:16:28.086Z,16.80
2022-08-02T02:17:52.608Z,16.80
2022-08-02T02:18:55.013Z,16.80
2022-08-02T02:19:58.960Z,16.80
2022-08-02T02:21:00.879Z,16.80
2022-08-02T02:22:02.608Z,16.80
2022-08-02T02:23:04.203Z,16.70
2022-08-02T02:24:09.112Z,16.70
2022-08-02T02:25:15.037Z,16.70
2022-08-02T02:26:20.117Z,16.60
2022-08-02T02:27:37.137Z,16.70
2022-08-02T02:28:40.313Z,16.70
2022-08-02T02:29:46.985Z,16.70
2022-08-02T02:30:53.315Z,16.70
2022-08-02T02:31:56.855Z,16.70
2022-08-02T02:33:02.504Z,16.70
2022-08-02T02:34:14.705Z,16.70
2022-08-02T02:35:18.141Z,16.70
2022-08-02T02:36:22.408Z,16.70
2022-08-02T02:37:26.687Z,16.70
2022-08-02T02:38:32.995Z,16.70
2022-08-02T02:39:36.213Z,16.70
2022-08-02T02:40:40.397Z,16.70
2022-08-02T02:41:43.653Z,16.70
2022-08-02T02:42:49.298Z,16.70
2022-08-02T02:43:55.881Z,16.70
2022-08-02T02:44:59.884Z,16.60
2022-08-02T02:46:05.011Z,16.70
2022-08-02T02:47:09.192Z,16.60
2022-08-02T02:48:12.509Z,16.60
2022-08-02T02:49:16.465Z,16.60
2022-08-02T02:50:18.414Z,16.60
2022-08-02T02:51:22.367Z,16.60
2022-08-02T02:52:25.435Z,16.60
2022-08-02T02:53:28.543Z,16.60
2022-08-02T02:54:51.424Z,16.60
2022-08-02T02:56:02.223Z,16.60
2022-08-02T02:57:06.488Z,16.60
2022-08-02T02:58:08.865Z,16.50
2022-08-02T02:59:10.806Z,16.50
2022-08-02T03:00:15.210Z,16.50
2022-08-02T03:01:55.497Z,16.50
2022-08-02T03:02:51.274Z,16.50
2022-08-02T03:04:05.616Z,16.50
2022-08-02T03:05:09.304Z,16.50
2022-08-02T03:06:15.048Z,16.50
2022-08-02T03:07:17.255Z,16.50
2022-08-02T03:08:19.373Z,16.50
2022-08-02T03:09:21.402Z,16.40
2022-08-02T03:10:23.517Z,16.40
2022-08-02T03:11:30.057Z,16.50
2022-08-02T03:12:32.686Z,16.50
2022-08-02T03:13:35.577Z,16.50
2022-08-02T03:14:43.656Z,16.40
2022-08-02T03:15:47.918Z,16.40
2022-08-02T03:16:51.949Z,16.40
2022-08-02T03:17:53.776Z,16.40
2022-08-02T03:18:57.351Z,16.40
2022-08-02T03:19:59.319Z,16.40
2022-08-02T03:21:09.324Z,16.40
2022-08-02T03:22:11.825Z,16.40
2022-08-02T03:23:13.473Z,16.40
2022-08-02T03:24:15.349Z,16.50
2022-08-02T03:25:30.270Z,16.50
2022-08-02T03:26:31.904Z,16.50
2022-08-02T03:27:33.615Z,16.50
2022-08-02T03:28:36.132Z,16.50
2022-08-02T03:29:37.585Z,16.50
2022-08-02T03:30:39.208Z,16.50
2022-08-02T03:31:44.067Z,16.50
2022-08-02T03:32:48.523Z,16.50
2022-08-02T03:33:50.131Z,16.50
2022-08-02T03:34:52.325Z,16.50
2022-08-02T03:35:57.202Z,16.50
2022-08-02T03:36:59.867Z,16.50
2022-08-02T03:38:02.066Z,16.50
2022-08-02T03:39:05.333Z,16.40
2022-08-02T03:40:09.441Z,16.50
2022-08-02T03:41:14.026Z,16.40
2022-08-02T03:42:16.745Z,16.40
2022-08-02T03:43:18.712Z,16.40
2022-08-02T03:44:20.761Z,16.40
2022-08-02T03:45:23.182Z,16.30
2022-08-02T03:46:26.039Z,16.40
2022-08-02T03:47:29.415Z,16.40
2022-08-02T03:48:34.764Z,16.40
2022-08-02T03:49:37.643Z,16.40
2022-08-02T03:50:41.078Z,16.40
2022-08-02T03:51:42.768Z,16.40
2022-08-02T03:52:45.587Z,16.40
2022-08-02T03:53:48.919Z,16.40
2022-08-02T03:54:50.614Z,16.40
2022-08-02T03:55:52.579Z,16.30
2022-08-02T03:56:57.621Z,16.30
2022-08-02T03:57:59.503Z,16.30
2022-08-02T03:59:09.229Z,16.40
2022-08-02T04:00:17.403Z,16.40
2022-08-02T04:01:19.068Z,16.30
2022-08-02T04:02:20.663Z,16.30
2022-08-02T04:03:22.765Z,16.40
2022-08-02T04:04:24.357Z,16.30
2022-08-02T04:05:26.004Z,16.30
2022-08-02T04:06:28.502Z,16.30
2022-08-02T04:08:34.976Z,16.30
2022-08-02T04:08:53.046Z,16.30
2022-08-02T04:09:54.542Z,16.20
2022-08-02T04:11:14.678Z,16.20
2022-08-02T04:12:16.158Z,16.30
2022-08-02T04:13:17.814Z,16.30
2022-08-02T04:14:22.977Z,16.30
2022-08-02T04:15:24.897Z,16.30
2022-08-02T04:16:35.230Z,16.30
2022-08-02T04:17:48.083Z,16.20
2022-08-02T04:18:57.091Z,16.20
2022-08-02T04:20:18.102Z,16.20
2022-08-02T04:21:21.978Z,16.20
2022-08-02T04:22:30.777Z,16.20
2022-08-02T04:23:34.220Z,16.20
2022-08-02T04:24:41.327Z,16.20
2022-08-02T04:25:44.817Z,16.20
2022-08-02T04:26:49.845Z,16.30
2022-08-02T04:28:16.599Z,16.30
2022-08-02T04:29:15.021Z,16.30
2022-08-02T04:30:17.396Z,16.30
2022-08-02T04:31:19.828Z,16.30
2022-08-02T04:32:22.002Z,16.30
2022-08-02T04:33:24.226Z,16.40
2022-08-02T04:34:26.042Z,16.30
2022-08-02T04:35:28.429Z,16.30
2022-08-02T04:36:31.793Z,16.30
2022-08-02T04:37:34.976Z,16.30
2022-08-02T04:38:38.185Z,16.30
2022-08-02T04:39:43.678Z,16.40
2022-08-02T04:40:53.573Z,16.40
2022-08-02T04:41:57.780Z,16.50
2022-08-02T04:42:59.705Z,16.50
2022-08-02T04:44:01.302Z,16.50
2022-08-02T04:45:05.048Z,16.50
2022-08-02T04:46:06.766Z,16.50
2022-08-02T04:47:08.377Z,16.60
2022-08-02T04:48:10.198Z,16.60
2022-08-02T04:49:12.227Z,16.60
2022-08-02T04:50:13.825Z,16.60
2022-08-02T04:51:15.700Z,16.70
2022-08-02T04:52:17.322Z,16.70
2022-08-02T04:53:19.000Z,16.70
2022-08-02T04:54:20.810Z,16.80
2022-08-02T04:55:25.480Z,16.80
2022-08-02T04:56:27.170Z,16.80
2022-08-02T04:57:52.709Z,16.80
2022-08-02T04:58:54.654Z,16.90
2022-08-02T04:59:56.744Z,16.90
2022-08-02T05:00:58.392Z,16.90
2022-08-02T05:02:00.201Z,16.90
2022-08-02T05:03:02.223Z,17.00
2022-08-02T05:04:04.332Z,17.00
2022-08-02T05:05:10.128Z,17.00
2022-08-02T05:06:19.483Z,17.10
2022-08-02T05:07:21.537Z,17.10
2022-08-02T05:08:23.177Z,17.20
2022-08-02T05:09:25.062Z,17.20
2022-08-02T05:10:26.980Z,17.20
2022-08-02T05:11:36.351Z,17.30
2022-08-02T05:12:39.122Z,17.30
2022-08-02T05:13:58.052Z,17.40
2022-08-02T05:15:01.149Z,17.40
2022-08-02T05:16:04.692Z,17.40
2022-08-02T05:17:06.837Z,17.50
2022-08-02T05:18:09.326Z,17.40
2022-08-02T05:19:11.268Z,17.40
2022-08-02T05:20:13.774Z,17.40
2022-08-02T05:21:15.382Z,17.50
2022-08-02T05:22:17.201Z,17.50
2022-08-02T05:23:18.892Z,17.50
2022-08-02T05:24:20.509Z,17.50
2022-08-02T05:25:22.149Z,17.50
2022-08-02T05:26:23.758Z,17.60
2022-08-02T05:27:25.293Z,17.60
2022-08-02T05:28:26.842Z,17.60
2022-08-02T05:29:28.898Z,17.60
2022-08-02T05:30:30.461Z,17.70
2022-08-02T05:31:31.994Z,17.70
2022-08-02T05:32:34.410Z,17.80
2022-08-02T05:33:36.355Z,17.80
2022-08-02T05:34:37.853Z,17.80
2022-08-02T05:35:39.364Z,17.90
2022-08-02T05:36:42.082Z,18.00
2022-08-02T05:37:43.761Z,18.10
2022-08-02T05:38:53.111Z,18.10
2022-08-02T05:40:12.712Z,18.20
2022-08-02T05:41:15.032Z,18.20
2022-08-02T05:42:16.615Z,18.20
2022-08-02T05:43:18.357Z,18.30
2022-08-02T05:44:22.727Z,18.40
2022-08-02T05:45:25.089Z,18.40
2022-08-02T05:46:26.598Z,18.40
2022-08-02T05:47:28.169Z,18.50
2022-08-02T05:48:32.271Z,18.50
2022-08-02T05:49:34.287Z,18.60
2022-08-02T05:50:39.832Z,18.60
2022-08-02T05:52:04.352Z,18.60
2022-08-02T05:53:24.483Z,18.80
2022-08-02T05:54:28.910Z,18.70
2022-08-02T05:55:47.227Z,18.80
2022-08-02T05:56:56.645Z,18.70
2022-08-02T05:58:14.313Z,18.70
2022-08-02T05:59:33.648Z,18.70
2022-08-02T06:00:36.420Z,18.80
2022-08-02T06:01:43.654Z,18.80
2022-08-02T06:03:16.701Z,18.80
2022-08-02T06:04:26.409Z,18.90
2022-08-02T06:05:32.563Z,18.90
2022-08-02T06:06:35.173Z,19.00
2022-08-02T06:07:37.716Z,19.00
2022-08-02T06:08:47.853Z,19.10
2022-08-02T06:09:51.952Z,19.20
2022-08-02T06:10:57.309Z,19.10
2022-08-02T06:12:02.147Z,19.00
2022-08-02T06:13:16.827Z,19.00
2022-08-02T06:14:19.444Z,19.00
2022-08-02T06:15:21.706Z,19.10
2022-08-02T06:16:32.254Z,19.20
2022-08-02T06:17:34.687Z,19.30
2022-08-02T06:18:44.200Z,19.50
2022-08-02T06:19:52.147Z,19.50
2022-08-02T06:22:32.952Z,19.50
2022-08-02T06:22:40.329Z,19.50
2022-08-02T06:23:57.595Z,19.70
2022-08-02T06:25:02.527Z,19.70
2022-08-02T06:26:06.638Z,19.80
2022-08-02T06:27:08.495Z,19.90
2022-08-02T06:28:11.366Z,19.90
2022-08-02T06:29:14.375Z,20.00
2022-08-02T06:30:16.167Z,20.00
2022-08-02T06:31:17.808Z,20.10
2022-08-02T06:32:20.011Z,20.10
2022-08-02T06:33:23.608Z,20.20
2022-08-02T06:34:25.763Z,20.20
2022-08-02T06:35:40.153Z,20.20
2022-08-02T06:36:50.598Z,20.20
2022-08-02T06:37:59.466Z,20.30
2022-08-02T06:39:39.283Z,20.20
2022-08-02T06:40:40.778Z,20.20
2022-08-02T06:41:44.472Z,20.20
2022-08-02T06:43:08.788Z,20.30
2022-08-02T06:44:45.100Z,20.30
2022-08-02T06:45:34.528Z,20.30
2022-08-02T06:47:09.448Z,20.30
2022-08-02T06:47:57.744Z,20.30
2022-08-02T06:49:01.478Z,20.30
2022-08-02T06:50:04.475Z,20.40
2022-08-02T06:51:06.279Z,20.40
2022-08-02T06:52:07.854Z,20.50
2022-08-02T06:53:10.627Z,20.60
2022-08-02T06:54:12.889Z,20.50
2022-08-02T06:55:14.341Z,20.60
2022-08-02T06:56:16.252Z,20.60
2022-08-02T06:57:17.968Z,20.40
2022-08-02T06:58:19.416Z,20.30
2022-08-02T06:59:21.099Z,20.10
2022-08-02T07:00:22.585Z,20.10
2022-08-02T07:01:24.148Z,20.00
2022-08-02T07:02:25.957Z,19.90
2022-08-02T07:03:27.887Z,19.80
2022-08-02T07:04:29.900Z,19.80
2022-08-02T07:05:31.480Z,19.80
2022-08-02T07:06:33.170Z,19.70
2022-08-02T07:07:35.138Z,19.70
2022-08-02T07:08:38.552Z,19.70
2022-08-02T07:09:40.107Z,19.70
2022-08-02T07:11:02.520Z,19.90
2022-08-02T07:12:04.785Z,19.90
2022-08-02T07:13:08.626Z,19.90
2022-08-02T07:14:10.178Z,19.80
2022-08-02T07:15:12.626Z,19.80
2022-08-02T07:16:14.540Z,19.80
2022-08-02T07:17:17.043Z,19.80
2022-08-02T07:18:18.984Z,19.80
2022-08-02T07:19:20.632Z,19.90
2022-08-02T07:20:22.751Z,20.00
2022-08-02T07:21:55.936Z,20.10
2022-08-02T07:22:46.020Z,20.10
2022-08-02T07:23:47.907Z,20.20
2022-08-02T07:24:50.235Z,20.30
2022-08-02T07:26:02.835Z,20.30
2022-08-02T07:27:11.527Z,20.40
2022-08-02T07:28:24.073Z,20.50
2022-08-02T07:29:27.495Z,20.50
2022-08-02T07:30:36.152Z,20.60
2022-08-02T07:31:37.651Z,20.80
2022-08-02T07:32:39.332Z,20.80
2022-08-02T07:33:44.410Z,20.90
2022-08-02T07:34:51.084Z,20.90
2022-08-02T07:35:57.335Z,21.00
2022-08-02T07:36:59.015Z,21.00
2022-08-02T07:38:02.861Z,21.10
2022-08-02T07:39:06.213Z,21.20
2022-08-02T07:40:13.976Z,21.20
2022-08-02T07:41:16.431Z,21.20
2022-08-02T07:42:17.918Z,21.30
2022-08-02T07:43:19.352Z,21.30
2022-08-02T07:44:22.035Z,21.40
2022-08-02T07:45:24.491Z,21.40
2022-08-02T07:46:26.237Z,21.40
2022-08-02T07:47:30.443Z,21.50
2022-08-02T07:48:32.303Z,21.50
2022-08-02T07:49:33.929Z,21.60
2022-08-02T07:50:35.958Z,21.60
2022-08-02T07:51:37.824Z,21.70
2022-08-02T07:52:43.069Z,21.70
2022-08-02T07:53:49.858Z,21.70
2022-08-02T07:54:53.168Z,21.80
2022-08-02T07:55:55.045Z,21.90
2022-08-02T07:56:58.440Z,21.90
2022-08-02T07:58:00.554Z,21.90
2022-08-02T07:59:03.361Z,22.00
2022-08-02T08:00:06.603Z,22.10
2022-08-02T08:01:12.977Z,22.10
2022-08-02T08:02:15.094Z,22.10
2022-08-02T08:03:17.037Z,22.20
2022-08-02T08:04:19.390Z,22.20
2022-08-02T08:05:21.178Z,22.30
2022-08-02T08:06:28.506Z,22.20
2022-08-02T08:07:31.014Z,22.10
2022-08-02T08:08:35.113Z,22.20
2022-08-02T08:09:41.798Z,22.30
2022-08-02T08:10:43.382Z,22.40
2022-08-02T08:11:44.981Z,22.50
2022-08-02T08:12:46.450Z,22.60
2022-08-02T08:13:48.591Z,22.60
2022-08-02T08:14:50.153Z,22.60
2022-08-02T08:15:52.659Z,22.70
2022-08-02T08:16:54.246Z,22.70
2022-08-02T08:17:56.024Z,22.70
2022-08-02T08:18:57.576Z,22.90
2022-08-02T08:19:59.125Z,22.90
2022-08-02T08:21:00.881Z,23.10
2022-08-02T08:22:06.050Z,23.20
2022-08-02T08:23:07.489Z,23.30
2022-08-02T08:24:09.427Z,23.30
2022-08-02T08:25:10.985Z,23.40
2022-08-02T08:26:15.621Z,23.50
2022-08-02T08:27:18.561Z,23.60
2022-08-02T08:28:20.541Z,23.60
2022-08-02T08:29:23.242Z,23.60
2022-08-02T08:30:25.017Z,23.60
2022-08-02T08:31:26.804Z,23.60
2022-08-02T08:32:28.660Z,23.70
2022-08-02T08:33:30.769Z,23.70
2022-08-02T08:34:32.398Z,23.80
2022-08-02T08:35:34.723Z,23.80
2022-08-02T08:36:37.868Z,24.00
2022-08-02T08:37:40.331Z,23.90
2022-08-02T08:38:43.564Z,23.90
2022-08-02T08:39:58.469Z,24.00
2022-08-02T08:41:01.094Z,24.10
2022-08-02T08:42:05.443Z,24.00
2022-08-02T08:43:06.969Z,23.90
2022-08-02T08:44:08.739Z,23.90
2022-08-02T08:45:10.788Z,23.90
2022-08-02T08:46:24.325Z,24.00
2022-08-02T08:47:37.533Z,24.00
2022-08-02T08:48:47.007Z,23.90
2022-08-02T08:49:53.602Z,23.90
2022-08-02T08:51:04.534Z,24.00
2022-08-02T08:52:06.963Z,24.00
2022-08-02T08:53:14.973Z,24.10
2022-08-02T08:54:18.530Z,24.10
2022-08-02T08:55:23.847Z,24.10
2022-08-02T08:56:32.000Z,24.10
2022-08-02T08:57:37.010Z,24.00
2022-08-02T08:58:39.687Z,23.90
2022-08-02T08:59:41.220Z,23.90
2022-08-02T09:00:42.832Z,23.90
2022-08-02T09:01:50.017Z,24.00
2022-08-02T09:02:53.247Z,23.90
2022-08-02T09:03:55.169Z,24.00
2022-08-02T09:04:56.966Z,24.00
2022-08-02T09:05:58.710Z,24.10
2022-08-02T09:07:00.481Z,24.20
2022-08-02T09:08:02.244Z,24.20
2022-08-02T09:09:04.040Z,24.00
2022-08-02T09:10:38.245Z,24.10
2022-08-02T09:11:40.287Z,24.20
2022-08-02T09:12:41.790Z,24.20
2022-08-02T09:13:54.981Z,24.10
2022-08-02T09:14:56.843Z,24.10
2022-08-02T09:16:12.294Z,24.10
2022-08-02T09:17:14.706Z,24.20
2022-08-02T09:18:16.253Z,24.30
2022-08-02T09:19:25.738Z,24.30
2022-08-02T09:20:30.740Z,24.40
2022-08-02T09:21:37.248Z,24.50
2022-08-02T09:22:39.011Z,24.60
2022-08-02T09:23:48.457Z,24.60
2022-08-02T09:24:53.683Z,24.70
2022-08-02T09:25:59.442Z,24.80
2022-08-02T09:27:14.407Z,24.90
2022-08-02T09:28:16.548Z,24.70
2022-08-02T09:29:21.903Z,24.80
2022-08-02T09:30:26.057Z,24.80
2022-08-02T09:31:28.191Z,24.70
2022-08-02T09:32:44.554Z,24.80
2022-08-02T09:33:54.914Z,24.80
2022-08-02T09:34:56.619Z,24.70
2022-08-02T09:36:08.220Z,24.80
2022-08-02T09:37:25.879Z,24.90
2022-08-02T09:38:27.842Z,24.70
2022-08-02T09:39:47.625Z,24.60
2022-08-02T09:40:49.842Z,24.40
2022-08-02T09:41:51.583Z,24.40
2022-08-02T09:42:59.634Z,24.50
2022-08-02T09:44:05.542Z,24.30
2022-08-02T09:45:09.488Z,24.30
2022-08-02T09:46:25.713Z,24.30
2022-08-02T09:47:28.767Z,24.40
2022-08-02T09:48:32.953Z,24.50
2022-08-02T09:49:34.425Z,24.50
2022-08-02T09:50:41.903Z,24.60
2022-08-02T09:51:49.339Z,24.70
2022-08-02T09:52:51.181Z,24.70
2022-08-02T09:54:01.974Z,24.70
2022-08-02T09:55:09.004Z,24.70
2022-08-02T09:56:35.380Z,24.60
2022-08-02T09:57:38.356Z,24.70
2022-08-02T09:58:40.013Z,24.60
2022-08-02T09:59:53.621Z,24.60
2022-08-02T10:00:57.126Z,24.60
2022-08-02T10:02:02.315Z,24.80
2022-08-02T10:03:06.768Z,24.80
2022-08-02T10:04:15.729Z,24.90
2022-08-02T10:05:22.862Z,25.00
2022-08-02T10:06:25.839Z,24.90
2022-08-02T10:07:27.408Z,25.00
2022-08-02T10:08:33.279Z,24.90
2022-08-02T10:09:37.967Z,24.90
2022-08-02T10:10:42.790Z,24.90
2022-08-02T10:11:44.982Z,24.90
2022-08-02T10:12:46.540Z,25.10
2022-08-02T10:13:49.148Z,25.10
2022-08-02T10:14:54.410Z,25.10
2022-08-02T10:15:56.982Z,25.20
2022-08-02T10:16:58.836Z,25.10
2022-08-02T10:18:00.446Z,25.20
2022-08-02T10:19:04.516Z,25.30
2022-08-02T10:20:06.608Z,25.30
2022-08-02T10:21:16.512Z,25.30
2022-08-02T10:22:19.982Z,25.20
2022-08-02T10:23:22.992Z,25.20
2022-08-02T10:24:28.254Z,25.20
2022-08-02T10:25:30.721Z,25.20
2022-08-02T10:26:32.931Z,25.10
2022-08-02T10:28:02.565Z,25.10
2022-08-02T10:28:58.665Z,25.20
2022-08-02T10:30:01.452Z,25.30
2022-08-02T10:31:07.061Z,25.40
2022-08-02T10:32:14.094Z,25.50
2022-08-02T10:33:19.393Z,25.60
2022-08-02T10:34:31.698Z,25.70
2022-08-02T10:35:37.511Z,25.70
2022-08-02T10:36:41.129Z,25.70
2022-08-02T10:37:46.151Z,25.70
2022-08-02T10:38:47.820Z,25.60
2022-08-02T10:39:57.027Z,25.70
2022-08-02T10:40:58.531Z,25.80
2022-08-02T10:42:00.069Z,25.90
2022-08-02T10:43:02.792Z,25.90
2022-08-02T10:44:04.803Z,26.00
2022-08-02T10:45:11.558Z,26.10
2022-08-02T10:46:22.282Z,26.10
2022-08-02T10:47:25.672Z,26.20
2022-08-02T10:48:27.459Z,26.20
2022-08-02T10:49:44.191Z,26.20
2022-08-02T10:50:45.767Z,26.20
2022-08-02T10:51:55.294Z,26.10
2022-08-02T10:53:24.996Z,25.90
2022-08-02T10:54:28.774Z,26.00
2022-08-02T10:55:44.990Z,25.90
2022-08-02T10:56:49.024Z,26.10
2022-08-02T10:58:16.889Z,26.10
2022-08-02T10:59:29.371Z,26.10
2022-08-02T11:00:30.845Z,26.10
2022-08-02T11:01:38.989Z,26.10
2022-08-02T11:02:47.494Z,26.10
2022-08-02T11:03:59.634Z,26.10
2022-08-02T11:05:10.223Z,26.20
2022-08-02T11:06:25.957Z,26.30
2022-08-02T11:07:40.101Z,26.40
2022-08-02T11:08:41.659Z,26.50
2022-08-02T11:09:45.660Z,26.50
2022-08-02T11:10:47.594Z,26.40
2022-08-02T11:12:07.992Z,26.50
2022-08-02T11:13:17.812Z,26.50
2022-08-02T11:14:20.558Z,26.50
2022-08-02T11:15:22.212Z,26.40
2022-08-02T11:16:23.687Z,26.50
2022-08-02T11:17:25.435Z,26.50
2022-08-02T11:18:51.559Z,26.60
2022-08-02T11:20:11.210Z,26.70
2022-08-02T11:21:23.289Z,26.80
2022-08-02T11:22:25.988Z,26.90
2022-08-02T11:23:45.327Z,27.10
2022-08-02T11:24:47.365Z,27.00
2022-08-02T11:26:11.095Z,27.10
2022-08-02T11:27:21.771Z,27.20
2022-08-02T11:28:25.471Z,27.20
2022-08-02T11:29:44.399Z,27.30
2022-08-02T11:30:55.696Z,27.30
2022-08-02T11:31:58.747Z,27.20
2022-08-02T11:33:00.915Z,27.10
2022-08-02T11:34:09.180Z,27.20
2022-08-02T11:35:11.384Z,27.10
2022-08-02T11:36:12.993Z,26.90
2022-08-02T11:37:36.280Z,26.90
2022-08-02T11:38:38.531Z,26.90
2022-08-02T11:39:39.982Z,27.00
2022-08-02T11:40:43.108Z,26.90
2022-08-02T11:41:59.183Z,26.80
2022-08-02T11:43:00.990Z,26.80
2022-08-02T11:44:02.670Z,26.90
2022-08-02T11:45:09.138Z,27.00
2022-08-02T11:46:14.856Z,27.10
2022-08-02T11:47:16.409Z,27.20
2022-08-02T11:48:38.178Z,27.20
2022-08-02T11:49:40.049Z,27.30
2022-08-02T11:50:41.503Z,27.30
2022-08-02T11:52:05.372Z,27.50
2022-08-02T11:53:14.977Z,27.60
2022-08-02T11:54:23.962Z,27.70
2022-08-02T11:55:30.043Z,27.70
2022-08-02T11:56:33.006Z,27.80
2022-08-02T11:58:03.532Z,27.90
2022-08-02T11:59:07.588Z,27.90
2022-08-02T12:00:18.928Z,27.70
2022-08-02T12:01:20.448Z,27.70
2022-08-02T12:02:29.088Z,27.80
2022-08-02T12:03:39.032Z,27.80
2022-08-02T12:04:41.497Z,28.00
2022-08-02T12:06:05.087Z,28.10
2022-08-02T12:07:08.783Z,27.90
2022-08-02T12:08:10.247Z,27.80
2022-08-02T12:09:18.739Z,27.60
2022-08-02T12:10:24.721Z,27.40
2022-08-02T12:11:26.198Z,27.50
2022-08-02T12:12:52.053Z,27.60
2022-08-02T12:13:57.602Z,27.70
2022-08-02T12:14:59.642Z,27.80
2022-08-02T12:16:30.895Z,27.80
2022-08-02T12:17:51.347Z,27.80
2022-08-02T12:19:11.497Z,27.90
2022-08-02T12:20:17.483Z,28.00
2022-08-02T12:21:24.473Z,28.10
2022-08-02T12:22:27.797Z,28.00
2022-08-02T12:23:30.074Z,28.00
2022-08-02T12:24:31.842Z,28.00
2022-08-02T12:25:35.451Z,28.00
2022-08-02T12:26:45.434Z,28.20
2022-08-02T12:27:47.149Z,28.30
2022-08-02T12:28:59.520Z,28.40
2022-08-02T12:30:32.340Z,28.40
2022-08-02T12:31:56.237Z,28.40
2022-08-02T12:33:12.960Z,28.30
2022-08-02T12:34:18.235Z,28.10
2022-08-02T12:35:26.270Z,28.20
2022-08-02T12:36:30.044Z,28.30
2022-08-02T12:37:31.793Z,28.50
2022-08-02T12:38:34.114Z,28.50
2022-08-02T12:39:46.803Z,28.60
2022-08-02T12:40:48.628Z,28.80
2022-08-02T12:41:57.513Z,28.80
2022-08-02T12:43:07.275Z,28.70
2022-08-02T12:44:17.300Z,28.60
2022-08-02T12:45:21.585Z,28.60
2022-08-02T12:46:24.729Z,28.50
2022-08-02T12:47:35.710Z,28.50
2022-08-02T12:48:56.647Z,28.60
2022-08-02T12:50:21.909Z,28.40
2022-08-02T12:51:50.955Z,28.30
2022-08-02T12:52:51.174Z,28.30
2022-08-02T12:53:59.016Z,28.40
2022-08-02T12:55:22.262Z,28.50
2022-08-02T12:56:28.790Z,28.50
2022-08-02T12:57:30.721Z,28.50
2022-08-02T12:58:48.857Z,28.60
2022-08-02T12:59:52.698Z,28.70
2022-08-02T13:00:58.198Z,28.80
2022-08-02T13:02:08.138Z,28.90
2022-08-02T13:03:11.737Z,29.00
2022-08-02T13:04:31.834Z,29.00
2022-08-02T13:05:57.683Z,29.00
2022-08-02T13:07:00.516Z,29.00
2022-08-02T13:08:03.501Z,29.10
2022-08-02T13:09:13.641Z,29.20
2022-08-02T13:10:15.665Z,29.30
2022-08-02T13:11:17.592Z,29.30
2022-08-02T13:12:19.090Z,29.20
2022-08-02T13:13:20.662Z,29.20
2022-08-02T13:14:22.461Z,29.30
2022-08-02T13:15:49.666Z,29.30
2022-08-02T13:16:46.828Z,29.40
2022-08-02T13:17:48.421Z,29.40
2022-08-02T13:18:50.154Z,29.50
2022-08-02T13:19:53.198Z,29.50
2022-08-02T13:20:54.978Z,29.40
2022-08-02T13:22:03.892Z,29.40
2022-08-02T13:23:05.749Z,29.30
2022-08-02T13:24:32.630Z,29.30
2022-08-02T13:25:30.055Z,29.40
2022-08-02T13:26:31.912Z,29.40
2022-08-02T13:27:34.003Z,29.50
2022-08-02T13:28:35.490Z,29.60
2022-08-02T13:29:39.027Z,29.60
2022-08-02T13:30:40.693Z,29.60
2022-08-02T13:31:42.161Z,29.60
2022-08-02T13:32:44.791Z,29.60
2022-08-02T13:33:46.236Z,29.70
2022-08-02T13:34:48.676Z,29.80
2022-08-02T13:35:50.603Z,29.70
2022-08-02T13:36:52.083Z,29.70
2022-08-02T13:37:53.562Z,29.60
2022-08-02T13:38:55.008Z,29.70
2022-08-02T13:40:20.170Z,29.80
2022-08-02T13:41:18.431Z,29.80
2022-08-02T13:42:20.341Z,29.80
2022-08-02T13:43:22.389Z,29.70
2022-08-02T13:44:24.022Z,29.60
2022-08-02T13:45:25.702Z,29.60
2022-08-02T13:46:29.274Z,29.60
2022-08-02T13:47:36.315Z,29.60
2022-08-02T13:48:53.488Z,29.70
2022-08-02T13:49:55.391Z,29.80
2022-08-02T13:50:56.981Z,29.80
2022-08-02T13:51:58.948Z,29.80
2022-08-02T13:53:00.462Z,29.90
2022-08-02T13:54:02.040Z,30.00
2022-08-02T13:55:04.047Z,30.10
2022-08-02T13:56:14.653Z,30.10
2022-08-02T13:57:16.385Z,30.10
2022-08-02T13:58:17.878Z,30.20
2022-08-02T13:59:54.559Z,30.20
2022-08-02T14:00:41.106Z,30.20
2022-08-02T14:01:42.825Z,30.10
2022-08-02T14:02:44.327Z,30.20
2022-08-02T14:04:07.882Z,30.30
2022-08-02T14:05:07.715Z,30.30
2022-08-02T14:06:10.722Z,30.30
2022-08-02T14:07:13.220Z,30.50
2022-08-02T14:08:16.955Z,30.60
2022-08-02T14:09:18.779Z,30.60
2022-08-02T14:10:20.416Z,30.50